Time;durP1;ratioP1;P1;durP2;ratioP2;P2;SDS_P1;SDS_P2;PMS_P1;PMS_P2;Temp;Humidity;BMP_temperature;BMP_pressure;BME280_temperature;BME280_humidity;BME280_pressure;Samples;Min_cycle;Max_cycle;Signal;HPM_P1;HPM_P2
2021/11/19 00:01:10;;;;;;;12.65;8.80;;;3.00;99.90;;;;;;2031026;69;21124;-74
2021/11/19 00:03:36;;;;;;;12.33;8.63;;;3.00;99.90;;;;;;2040119;69;21116;-74
2021/11/19 00:06:03;;;;;;;13.98;9.10;;;3.00;99.90;;;;;;2045162;69;21024;-74
2021/11/19 00:08:29;;;;;;;15.68;9.23;;;3.00;99.90;;;;;;2035596;69;21046;-74
2021/11/19 00:10:55;;;;;;;14.20;8.98;;;3.00;99.90;;;;;;2035859;69;21066;-74
2021/11/19 00:13:21;;;;;;;23.25;9.75;;;2.90;99.90;;;;;;2031932;69;21054;-72
2021/11/19 00:15:47;;;;;;;14.45;8.90;;;2.90;99.90;;;;;;2029009;69;21136;-74
2021/11/19 00:18:13;;;;;;;19.10;9.50;;;2.90;99.90;;;;;;2029529;69;21148;-73
2021/11/19 00:20:39;;;;;;;16.55;8.33;;;2.90;99.90;;;;;;2032707;68;21120;-73
2021/11/19 00:23:05;;;;;;;11.57;8.93;;;2.90;99.90;;;;;;2043586;69;21028;-73
2021/11/19 00:25:32;;;;;;;14.90;8.88;;;2.80;99.90;;;;;;2045052;69;21039;-73
2021/11/19 00:27:58;;;;;;;13.40;8.58;;;2.70;99.90;;;;;;2048551;69;21050;-74
2021/11/19 00:30:24;;;;;;;20.80;10.03;;;2.70;99.90;;;;;;2034646;69;21047;-73
2021/11/19 00:32:50;;;;;;;13.62;9.43;;;2.70;99.90;;;;;;2045018;68;21050;-74
2021/11/19 00:35:16;;;;;;;13.72;8.63;;;2.80;99.90;;;;;;2045136;69;21159;-73
2021/11/19 00:37:42;;;;;;;13.20;8.80;;;2.80;99.90;;;;;;2034646;69;21242;-72
2021/11/19 00:40:08;;;;;;;23.05;9.33;;;2.80;99.90;;;;;;2034299;69;21117;-75
2021/11/19 00:42:34;;;;;;;14.85;8.90;;;2.70;99.90;;;;;;2025020;69;21135;-74
2021/11/19 00:45:01;;;;;;;15.75;9.55;;;2.70;99.90;;;;;;2045532;68;21051;-72
2021/11/19 00:47:27;;;;;;;12.10;8.40;;;2.80;99.90;;;;;;2043113;69;21467;-74
2021/11/19 00:49:55;;;;;;;17.00;8.20;;;2.70;99.90;;;;;;2036513;69;21421;-74
2021/11/19 00:52:21;;;;;;;16.95;8.78;;;2.70;99.90;;;;;;2033917;69;21078;-75
2021/11/19 00:54:47;;;;;;;14.05;8.40;;;2.70;99.90;;;;;;1990988;71;21083;-74
2021/11/19 00:57:13;;;;;;;14.50;9.18;;;2.70;99.90;;;;;;1988637;71;21188;-74
2021/11/19 00:59:39;;;;;;;12.50;8.23;;;2.60;99.90;;;;;;1995485;71;21053;-74
2021/11/19 01:02:06;;;;;;;10.93;8.40;;;2.60;99.90;;;;;;1987913;71;21062;-73
2021/11/19 01:04:34;;;;;;;14.33;8.03;;;2.60;99.90;;;;;;1985184;72;21172;-73
2021/11/19 01:07:00;;;;;;;15.55;8.30;;;2.50;99.90;;;;;;1972554;71;21085;-75
2021/11/19 01:09:26;;;;;;;12.10;7.50;;;2.50;99.90;;;;;;1948294;71;21079;-74
2021/11/19 01:11:52;;;;;;;12.23;8.95;;;2.40;99.90;;;;;;1959597;71;21137;-74
2021/11/19 01:14:20;;;;;;;12.07;8.18;;;2.40;99.90;;;;;;1984209;71;21064;-74
2021/11/19 01:16:46;;;;;;;12.30;8.30;;;2.40;99.90;;;;;;1963194;71;21493;-75
2021/11/19 01:19:12;;;;;;;13.15;8.25;;;2.30;99.90;;;;;;1973381;71;21070;-75
2021/11/19 01:21:38;;;;;;;11.15;8.30;;;2.30;99.90;;;;;;1949408;72;21039;-74
2021/11/19 01:24:04;;;;;;;12.20;8.35;;;2.30;99.90;;;;;;1959781;71;21214;-74
2021/11/19 01:26:31;;;;;;;10.35;8.20;;;2.40;99.90;;;;;;1975520;72;21073;-76
2021/11/19 01:28:57;;;;;;;12.63;8.35;;;2.30;99.90;;;;;;1962264;71;21053;-75
2021/11/19 01:31:23;;;;;;;14.53;8.45;;;2.30;99.90;;;;;;1988476;71;21070;-74
2021/11/19 01:33:49;;;;;;;17.73;8.95;;;2.30;99.90;;;;;;1985378;71;21144;-74
2021/11/19 01:36:15;;;;;;;11.00;8.28;;;2.30;99.90;;;;;;1997517;71;21037;-75
2021/11/19 01:38:42;;;;;;;14.07;8.20;;;2.20;99.90;;;;;;1983020;71;21557;-74
2021/11/19 01:41:08;;;;;;;12.33;7.92;;;2.20;99.90;;;;;;1990717;71;21138;-74
2021/11/19 01:43:34;;;;;;;12.40;8.45;;;2.30;99.90;;;;;;2027407;69;21054;-74
2021/11/19 01:46:00;;;;;;;12.60;8.33;;;2.30;99.90;;;;;;2039066;69;21443;-74
2021/11/19 01:48:26;;;;;;;11.60;7.85;;;2.30;99.90;;;;;;2039866;69;21448;-73
2021/11/19 01:50:52;;;;;;;10.45;7.45;;;2.30;99.90;;;;;;2030418;69;21524;-74
2021/11/19 01:53:19;;;;;;;11.93;7.72;;;2.20;99.90;;;;;;2032864;69;21012;-75
2021/11/19 01:55:45;;;;;;;19.45;8.33;;;2.20;99.90;;;;;;2038774;69;21055;-75
2021/11/19 01:58:11;;;;;;;12.80;7.75;;;2.20;99.90;;;;;;2034407;69;21161;-75
2021/11/19 02:00:38;;;;;;;12.43;7.87;;;2.20;99.90;;;;;;2043872;69;21123;-74
2021/11/19 02:03:04;;;;;;;12.80;7.75;;;2.20;99.90;;;;;;2042790;68;21246;-74
2021/11/19 02:05:30;;;;;;;12.00;7.12;;;2.20;99.90;;;;;;2040437;69;21177;-75
2021/11/19 02:07:56;;;;;;;12.73;7.70;;;2.10;99.90;;;;;;2034591;69;21495;-74
2021/11/19 02:10:22;;;;;;;11.25;8.05;;;2.10;99.90;;;;;;2038368;69;21403;-75
2021/11/19 02:12:48;;;;;;;10.95;7.75;;;2.10;99.90;;;;;;2037418;69;21633;-74
2021/11/19 02:15:14;;;;;;;10.80;7.67;;;2.10;99.90;;;;;;2049049;69;21055;-75
2021/11/19 02:17:40;;;;;;;12.15;8.25;;;2.00;99.90;;;;;;2055991;69;21192;-75
2021/11/19 02:20:10;;;;;;;12.15;8.13;;;2.00;99.90;;;;;;2026108;69;21119;-75
2021/11/19 02:22:36;;;;;;;9.73;7.92;;;2.10;99.90;;;;;;2032678;69;21067;-76
2021/11/19 02:25:02;;;;;;;10.80;8.20;;;2.00;99.90;;;;;;2047435;69;21051;-76
2021/11/19 02:27:28;;;;;;;13.10;7.97;;;2.00;99.90;;;;;;1996769;71;21434;-74
2021/11/19 02:29:55;;;;;;;12.75;7.60;;;1.90;99.90;;;;;;2000238;71;21458;-75
2021/11/19 02:32:21;;;;;;;11.78;7.90;;;1.90;99.90;;;;;;2004897;71;21119;-75
2021/11/19 02:34:47;;;;;;;12.18;6.97;;;2.00;99.90;;;;;;1991415;70;21066;-75
2021/11/19 02:37:13;;;;;;;12.58;7.92;;;1.90;99.90;;;;;;1993083;71;21123;-75
2021/11/19 02:39:39;;;;;;;9.63;7.20;;;1.80;99.90;;;;;;2001952;71;21077;-75
2021/11/19 02:42:06;;;;;;;10.18;8.03;;;1.80;99.90;;;;;;1990796;71;21146;-74
2021/11/19 02:44:34;;;;;;;10.95;7.25;;;1.80;99.90;;;;;;1997778;71;21452;-74
2021/11/19 02:47:00;;;;;;;8.53;7.53;;;1.70;99.90;;;;;;1988592;71;21106;-74
2021/11/19 02:49:26;;;;;;;12.85;7.35;;;1.80;99.90;;;;;;1995413;71;21127;-75
2021/11/19 02:51:52;;;;;;;10.72;7.55;;;1.90;99.90;;;;;;1980001;72;21148;-74
2021/11/19 02:54:18;;;;;;;9.38;7.70;;;1.90;99.90;;;;;;1962246;72;21063;-75
2021/11/19 02:56:44;;;;;;;9.85;8.10;;;1.90;99.90;;;;;;1952083;71;21134;-75
2021/11/19 02:59:10;;;;;;;12.40;7.58;;;1.90;99.90;;;;;;1958477;72;21588;-75
2021/11/19 03:01:36;;;;;;;11.48;7.50;;;1.90;99.90;;;;;;1951307;71;21463;-73
2021/11/19 03:04:02;;;;;;;10.15;7.90;;;1.90;99.90;;;;;;1972653;71;21541;-74
2021/11/19 03:06:28;;;;;;;10.78;8.45;;;1.90;99.90;;;;;;1957445;72;21064;-75
2021/11/19 03:08:55;;;;;;;10.53;8.40;;;1.90;99.90;;;;;;1977748;71;21062;-74
2021/11/19 03:11:21;;;;;;;11.38;8.03;;;1.80;99.90;;;;;;1978318;71;21149;-74
2021/11/19 03:13:48;;;;;;;13.45;8.13;;;1.80;99.90;;;;;;1971069;71;21079;-74
2021/11/19 03:16:14;;;;;;;10.75;7.90;;;1.80;99.90;;;;;;1970310;71;21151;-74
2021/11/19 03:18:40;;;;;;;12.90;8.30;;;1.80;99.90;;;;;;1969123;71;21171;-74
2021/11/19 03:21:06;;;;;;;15.38;8.28;;;1.80;99.90;;;;;;1979668;72;21213;-74
2021/11/19 03:23:32;;;;;;;15.55;8.08;;;1.70;99.90;;;;;;1970137;71;21070;-74
2021/11/19 03:26:00;;;;;;;11.10;7.85;;;1.80;99.90;;;;;;1953906;72;21058;-75
2021/11/19 03:28:26;;;;;;;10.35;7.45;;;1.80;99.90;;;;;;1972551;72;21099;-75
2021/11/19 03:30:52;;;;;;;11.28;7.17;;;1.70;99.90;;;;;;1959797;72;21079;-74
2021/11/19 03:33:18;;;;;;;14.53;8.08;;;1.70;99.90;;;;;;1972141;72;21172;-75
2021/11/19 03:35:44;;;;;;;8.63;7.70;;;1.70;99.90;;;;;;1971972;71;21146;-74
2021/11/19 03:38:11;;;;;;;14.05;7.60;;;1.70;99.90;;;;;;1981613;71;21122;-74
2021/11/19 03:40:37;;;;;;;11.55;7.90;;;1.60;99.90;;;;;;1964839;71;21145;-74
2021/11/19 03:43:03;;;;;;;7.47;6.75;;;1.60;99.90;;;;;;1951101;71;21076;-74
2021/11/19 03:45:29;;;;;;;7.75;6.72;;;1.60;99.90;;;;;;1961588;71;21067;-75
2021/11/19 03:47:55;;;;;;;11.35;8.30;;;1.60;99.90;;;;;;1971041;71;21072;-74
2021/11/19 03:50:21;;;;;;;8.10;6.78;;;1.60;99.90;;;;;;1971232;72;21144;-74
2021/11/19 03:52:47;;;;;;;8.65;7.22;;;1.60;99.90;;;;;;1975988;71;21068;-74
2021/11/19 03:55:14;;;;;;;8.10;6.78;;;1.60;99.90;;;;;;1976683;70;21088;-74
2021/11/19 03:57:40;;;;;;;14.38;7.65;;;1.60;99.90;;;;;;1966619;71;21133;-75
2021/11/19 04:00:06;;;;;;;11.03;7.30;;;1.60;99.90;;;;;;1960452;72;21541;-75
2021/11/19 04:02:32;;;;;;;8.45;7.17;;;1.70;99.90;;;;;;1975720;71;21137;-72
2021/11/19 04:04:58;;;;;;;10.03;7.58;;;1.60;99.90;;;;;;1944916;72;21071;-75
2021/11/19 04:07:24;;;;;;;10.00;7.60;;;1.50;99.90;;;;;;1964102;72;21196;-74
2021/11/19 04:09:51;;;;;;;9.10;7.75;;;1.50;99.90;;;;;;1973086;71;21197;-74
2021/11/19 04:12:17;;;;;;;14.50;7.75;;;1.50;99.90;;;;;;1947704;72;21075;-74
2021/11/19 04:14:43;;;;;;;10.93;7.60;;;1.50;99.90;;;;;;1944572;71;21150;-75
2021/11/19 04:17:09;;;;;;;9.15;7.92;;;1.60;99.90;;;;;;1972783;72;21150;-75
2021/11/19 04:19:35;;;;;;;12.75;8.08;;;1.60;99.90;;;;;;1974853;71;21052;-76
2021/11/19 04:22:01;;;;;;;13.05;8.55;;;1.60;99.90;;;;;;1960680;71;21218;-74
2021/11/19 04:24:27;;;;;;;13.55;8.68;;;1.60;99.90;;;;;;1956938;71;21144;-75
2021/11/19 04:26:53;;;;;;;11.15;7.83;;;1.50;99.90;;;;;;1974906;71;21027;-75
2021/11/19 04:29:20;;;;;;;11.43;8.00;;;1.50;99.90;;;;;;1985336;71;21072;-76
2021/11/19 04:31:46;;;;;;;11.88;7.97;;;1.60;99.90;;;;;;1987370;71;21074;-76
2021/11/19 04:34:12;;;;;;;13.30;7.25;;;1.50;99.90;;;;;;1992846;71;21441;-75
2021/11/19 04:36:38;;;;;;;9.65;7.75;;;1.50;99.90;;;;;;1992620;71;21486;-75
2021/11/19 04:39:04;;;;;;;12.50;8.63;;;1.50;99.90;;;;;;2051235;68;21046;-75
2021/11/19 04:41:30;;;;;;;9.63;7.30;;;1.40;99.90;;;;;;2042296;69;21171;-75
2021/11/19 04:43:57;;;;;;;13.83;8.28;;;1.40;99.90;;;;;;2031984;69;21132;-75
2021/11/19 04:46:23;;;;;;;9.48;7.35;;;1.40;99.90;;;;;;2050628;69;21528;-75
2021/11/19 04:48:50;;;;;;;12.75;7.42;;;1.40;99.90;;;;;;2053586;68;21451;-75
2021/11/19 04:51:16;;;;;;;11.40;7.15;;;1.50;99.90;;;;;;2038461;69;21016;-75
2021/11/19 04:53:43;;;;;;;11.12;7.42;;;1.40;99.90;;;;;;2034577;69;21052;-75
2021/11/19 04:56:09;;;;;;;9.25;6.67;;;1.40;99.90;;;;;;2034290;69;21140;-76
2021/11/19 04:58:35;;;;;;;10.85;8.10;;;1.40;99.90;;;;;;2035116;69;21568;-75
2021/11/19 05:01:01;;;;;;;9.25;7.70;;;1.40;99.90;;;;;;2046536;69;21494;-75
2021/11/19 05:03:27;;;;;;;11.43;8.13;;;1.50;99.90;;;;;;2044723;69;21467;-75
2021/11/19 05:05:53;;;;;;;10.40;8.35;;;1.40;99.90;;;;;;2047690;69;22555;-75
2021/11/19 05:08:20;;;;;;;10.55;8.08;;;1.40;99.90;;;;;;2046269;69;21162;-76
2021/11/19 05:10:46;;;;;;;9.08;7.58;;;1.30;99.90;;;;;;2036329;69;21124;-75
2021/11/19 05:13:12;;;;;;;12.25;8.35;;;1.30;99.90;;;;;;2034993;69;21049;-75
2021/11/19 05:15:38;;;;;;;13.38;7.97;;;1.30;99.90;;;;;;2042939;68;21044;-75
2021/11/19 05:18:04;;;;;;;17.20;8.88;;;1.30;99.90;;;;;;2058943;69;21125;-76
2021/11/19 05:20:31;;;;;;;9.78;8.15;;;1.30;99.90;;;;;;2046065;69;21056;-75
2021/11/19 05:22:57;;;;;;;13.25;9.18;;;1.30;99.90;;;;;;2030548;69;21071;-75
2021/11/19 05:25:24;;;;;;;12.23;8.98;;;1.30;99.90;;;;;;2034416;69;21523;-75
2021/11/19 05:27:50;;;;;;;14.45;9.03;;;1.30;99.90;;;;;;2026612;69;21246;-75
2021/11/19 05:30:16;;;;;;;11.45;8.80;;;1.30;99.90;;;;;;2030705;69;21124;-75
2021/11/19 05:32:42;;;;;;;10.98;7.92;;;1.20;99.90;;;;;;2040538;68;21278;-75
2021/11/19 05:35:08;;;;;;;10.88;8.75;;;1.20;99.90;;;;;;2034193;69;21046;-75
2021/11/19 05:37:35;;;;;;;19.27;9.63;;;1.20;99.90;;;;;;2028687;69;21038;-75
2021/11/19 05:40:01;;;;;;;15.05;10.28;;;1.20;99.90;;;;;;2043797;69;21115;-75
2021/11/19 05:42:27;;;;;;;12.82;9.23;;;1.30;99.90;;;;;;2009912;69;20996;-75
2021/11/19 05:44:54;;;;;;;13.03;8.63;;;1.30;99.90;;;;;;2032925;69;21440;-75
2021/11/19 05:47:20;;;;;;;16.60;8.60;;;1.30;99.90;;;;;;2049866;69;21459;-75
2021/11/19 05:49:46;;;;;;;11.03;8.50;;;1.30;99.90;;;;;;2055586;68;21588;-74
2021/11/19 05:52:12;;;;;;;11.88;8.00;;;1.30;99.90;;;;;;2042590;69;21111;-75
2021/11/19 05:54:38;;;;;;;16.90;9.35;;;1.30;99.90;;;;;;2047322;69;21043;-74
2021/11/19 05:57:04;;;;;;;17.12;9.20;;;1.30;99.90;;;;;;2037515;70;21094;-74
2021/11/19 05:59:30;;;;;;;12.80;8.48;;;1.30;99.90;;;;;;2037100;69;21016;-75
2021/11/19 06:01:56;;;;;;;17.17;9.00;;;1.20;99.90;;;;;;2035951;69;21035;-74
2021/11/19 06:04:23;;;;;;;13.70;8.10;;;1.30;99.90;;;;;;2049475;69;21296;-75
2021/11/19 06:06:49;;;;;;;12.18;8.15;;;1.30;99.90;;;;;;2034339;69;21043;-74
2021/11/19 06:09:18;;;;;;;13.03;8.30;;;1.30;99.90;;;;;;2035187;69;21123;-75
2021/11/19 06:11:43;;;;;;;15.75;8.98;;;1.40;99.90;;;;;;2029459;69;21087;-75
2021/11/19 06:14:09;;;;;;;10.28;8.70;;;1.30;99.90;;;;;;2029841;69;21023;-75
2021/11/19 06:16:35;;;;;;;14.28;8.95;;;1.30;99.90;;;;;;2040346;69;21165;-74
2021/11/19 06:19:01;;;;;;;10.95;8.90;;;1.30;99.90;;;;;;2043687;69;21134;-75
2021/11/19 06:21:27;;;;;;;13.78;9.18;;;1.30;99.90;;;;;;2061633;69;21068;-75
2021/11/19 06:23:53;;;;;;;14.38;10.15;;;1.40;99.90;;;;;;2044455;69;21169;-75
2021/11/19 06:26:20;;;;;;;15.40;9.75;;;1.30;99.90;;;;;;2041292;69;21016;-75
2021/11/19 06:28:46;;;;;;;16.32;9.45;;;1.40;99.90;;;;;;2044757;68;21647;-74
2021/11/19 06:31:12;;;;;;;13.10;9.15;;;1.50;99.90;;;;;;2041996;68;21192;-75
2021/11/19 06:33:38;;;;;;;10.13;8.73;;;1.50;99.90;;;;;;2049878;69;21112;-74
2021/11/19 06:36:04;;;;;;;21.40;9.78;;;1.50;99.90;;;;;;2052434;69;21094;-76
2021/11/19 06:38:30;;;;;;;13.58;8.48;;;1.60;99.90;;;;;;2042926;69;21207;-73
2021/11/19 06:40:56;;;;;;;17.70;9.48;;;1.60;99.90;;;;;;2041584;69;21046;-75
2021/11/19 06:43:23;;;;;;;16.10;8.90;;;1.60;99.90;;;;;;2038341;69;21023;-75
2021/11/19 06:45:49;;;;;;;16.95;10.10;;;1.60;99.90;;;;;;2043817;69;21043;-74
2021/11/19 06:48:15;;;;;;;16.40;9.43;;;1.70;99.90;;;;;;2035477;69;21058;-74
2021/11/19 06:50:43;;;;;;;15.15;9.60;;;1.70;99.90;;;;;;2053794;70;21051;-73
2021/11/19 06:53:09;;;;;;;12.60;9.23;;;1.60;99.90;;;;;;2041678;69;21116;-74
2021/11/19 06:55:35;;;;;;;11.63;8.08;;;1.60;99.90;;;;;;2058567;68;21086;-75
2021/11/19 06:58:01;;;;;;;17.67;8.60;;;1.60;99.90;;;;;;2053636;69;21046;-74
2021/11/19 07:00:27;;;;;;;12.00;8.23;;;1.70;99.90;;;;;;2030387;69;21039;-73
2021/11/19 07:02:53;;;;;;;12.37;8.65;;;1.80;99.90;;;;;;2041991;69;21051;-74
2021/11/19 07:05:20;;;;;;;13.08;8.78;;;1.90;99.90;;;;;;2059166;69;21042;-75
2021/11/19 07:07:46;;;;;;;12.10;8.23;;;2.00;99.90;;;;;;2046157;69;21067;-74
2021/11/19 07:10:12;;;;;;;8.98;7.35;;;2.10;99.90;;;;;;2045555;69;21020;-74
2021/11/19 07:12:38;;;;;;;16.67;8.73;;;2.20;99.90;;;;;;2040630;69;21066;-74
2021/11/19 07:15:04;;;;;;;12.25;8.28;;;2.20;99.90;;;;;;2050969;69;21462;-74
2021/11/19 07:17:30;;;;;;;14.05;8.43;;;2.30;99.90;;;;;;2042205;69;21696;-74
2021/11/19 07:19:56;;;;;;;16.60;9.18;;;2.30;99.90;;;;;;2047894;69;21482;-74
2021/11/19 07:22:22;;;;;;;13.95;8.78;;;2.20;99.90;;;;;;2039908;69;21043;-75
2021/11/19 07:24:52;;;;;;;14.10;7.83;;;2.10;99.90;;;;;;2041891;69;21150;-74
2021/11/19 07:27:16;;;;;;;15.18;8.23;;;2.20;99.90;;;;;;2059236;69;21500;-74
2021/11/19 07:29:43;;;;;;;14.43;8.70;;;2.20;99.90;;;;;;2043596;69;21474;-75
2021/11/19 07:32:09;;;;;;;13.05;8.63;;;2.30;99.90;;;;;;2027517;69;21055;-75
2021/11/19 07:34:35;;;;;;;10.30;8.18;;;2.40;99.90;;;;;;2033485;69;21041;-75
2021/11/19 07:37:01;;;;;;;13.75;8.83;;;2.50;99.90;;;;;;2038928;69;21108;-74
2021/11/19 07:39:28;;;;;;;13.98;8.33;;;2.50;99.90;;;;;;2046186;69;21038;-75
2021/11/19 07:41:54;;;;;;;12.18;8.78;;;2.60;99.90;;;;;;2039240;68;21043;-74
2021/11/19 07:44:20;;;;;;;12.30;8.65;;;2.50;99.90;;;;;;2050136;69;21055;-74
2021/11/19 07:46:46;;;;;;;20.72;9.95;;;2.50;99.90;;;;;;2035800;69;21116;-74
2021/11/19 07:49:12;;;;;;;15.18;9.00;;;2.60;99.90;;;;;;2045318;69;21455;-74
2021/11/19 07:51:38;;;;;;;15.20;9.70;;;2.60;99.90;;;;;;2032731;69;21503;-74
2021/11/19 07:54:04;;;;;;;23.22;10.40;;;2.60;99.90;;;;;;2037916;69;21435;-75
2021/11/19 07:56:30;;;;;;;20.30;10.03;;;2.70;99.90;;;;;;2036756;69;21007;-73
2021/11/19 07:58:57;;;;;;;17.67;8.73;;;2.70;99.90;;;;;;2043685;69;21117;-73
2021/11/19 08:01:23;;;;;;;16.32;9.20;;;2.70;99.90;;;;;;2041940;69;21039;-74
2021/11/19 08:03:49;;;;;;;14.40;9.70;;;2.70;99.90;;;;;;2036938;68;21047;-74
2021/11/19 08:06:15;;;;;;;15.30;9.68;;;2.70;99.90;;;;;;2043817;68;21144;-74
2021/11/19 08:08:41;;;;;;;15.30;9.35;;;2.70;99.90;;;;;;2050613;69;21180;-74
2021/11/19 08:11:07;;;;;;;12.93;8.95;;;2.70;99.90;;;;;;2045330;69;21011;-73
2021/11/19 08:13:33;;;;;;;14.68;9.13;;;2.70;99.90;;;;;;2039999;69;21047;-73
2021/11/19 08:15:59;;;;;;;15.32;8.93;;;2.80;99.90;;;;;;2030101;69;21097;-74
2021/11/19 08:18:26;;;;;;;17.30;9.13;;;2.90;99.90;;;;;;2036946;69;21160;-73
2021/11/19 08:20:52;;;;;;;13.35;9.65;;;2.90;99.90;;;;;;2037535;69;21033;-74
2021/11/19 08:23:18;;;;;;;20.70;9.45;;;2.90;99.90;;;;;;2040199;69;21457;-74
2021/11/19 08:25:44;;;;;;;14.47;8.83;;;2.80;99.90;;;;;;2000310;71;21066;-74
2021/11/19 08:28:10;;;;;;;13.50;9.20;;;2.80;99.90;;;;;;2032924;69;21034;-74
2021/11/19 08:30:36;;;;;;;15.08;8.50;;;2.90;99.90;;;;;;2034176;69;21120;-74
2021/11/19 08:33:03;;;;;;;15.25;8.30;;;2.90;99.90;;;;;;2026262;69;21044;-74
2021/11/19 08:35:30;;;;;;;14.18;8.80;;;3.00;99.90;;;;;;2043293;69;21116;-73
2021/11/19 08:37:56;;;;;;;12.50;8.38;;;3.00;99.90;;;;;;2035119;69;21015;-74
2021/11/19 08:40:22;;;;;;;12.98;7.87;;;3.00;99.90;;;;;;2027525;69;21163;-73
2021/11/19 08:42:48;;;;;;;10.90;8.13;;;3.00;99.90;;;;;;2039381;69;21058;-73
2021/11/19 08:45:14;;;;;;;14.30;8.78;;;2.90;99.90;;;;;;2044926;68;21466;-73
2021/11/19 08:47:40;;;;;;;15.83;8.90;;;3.00;99.90;;;;;;2048723;69;21453;-73
2021/11/19 08:50:07;;;;;;;13.40;9.50;;;2.90;99.90;;;;;;2017519;69;21520;-73
2021/11/19 08:52:33;;;;;;;12.93;8.78;;;3.00;99.90;;;;;;2038304;69;21015;-74
2021/11/19 08:54:59;;;;;;;16.80;9.38;;;2.90;99.90;;;;;;2042330;69;21028;-73
2021/11/19 08:57:25;;;;;;;14.43;9.35;;;3.00;99.90;;;;;;2040264;69;21046;-73
2021/11/19 08:59:52;;;;;;;11.60;8.65;;;3.00;99.90;;;;;;2050125;69;21116;-73
2021/11/19 09:02:18;;;;;;;18.98;9.75;;;3.10;99.90;;;;;;2037244;68;21330;-73
2021/11/19 09:04:44;;;;;;;16.45;9.05;;;3.10;99.90;;;;;;2054999;69;21110;-73
2021/11/19 09:07:10;;;;;;;18.05;9.80;;;3.20;99.90;;;;;;2032542;69;21482;-72
2021/11/19 09:09:36;;;;;;;16.73;10.00;;;3.20;99.90;;;;;;2049947;69;21435;-72
2021/11/19 09:12:02;;;;;;;19.65;14.03;;;3.20;99.90;;;;;;2036495;69;21023;-73
2021/11/19 09:14:28;;;;;;;16.27;11.50;;;3.30;99.90;;;;;;2048580;69;21054;-72
2021/11/19 09:16:54;;;;;;;13.48;10.80;;;3.60;99.90;;;;;;2050745;69;21034;-74
2021/11/19 09:19:21;;;;;;;14.33;9.23;;;3.90;99.90;;;;;;2040737;70;21108;-74
2021/11/19 09:21:47;;;;;;;17.95;9.05;;;3.90;99.90;;;;;;2041248;69;21047;-74
2021/11/19 09:24:13;;;;;;;13.68;8.63;;;4.10;99.90;;;;;;2038029;69;21020;-73
2021/11/19 09:26:40;;;;;;;12.53;8.23;;;4.10;99.90;;;;;;2043287;69;21027;-74
2021/11/19 09:29:06;;;;;;;9.98;8.05;;;4.20;99.90;;;;;;2038108;68;21109;-73
2021/11/19 09:31:32;;;;;;;13.85;9.45;;;4.60;99.90;;;;;;2042173;69;21051;-73
2021/11/19 09:33:58;;;;;;;12.93;8.23;;;4.80;99.90;;;;;;2043304;69;21043;-72
2021/11/19 09:36:24;;;;;;;13.83;7.62;;;4.80;99.90;;;;;;2032912;69;21117;-74
2021/11/19 09:38:50;;;;;;;18.80;8.00;;;4.70;99.90;;;;;;2030520;69;21012;-72
2021/11/19 09:41:16;;;;;;;27.73;9.58;;;4.40;99.90;;;;;;2047332;69;21040;-73
2021/11/19 09:43:43;;;;;;;16.60;9.23;;;4.10;99.90;;;;;;2048331;69;21047;-73
2021/11/19 09:46:09;;;;;;;11.80;8.10;;;4.10;99.90;;;;;;2040395;69;21451;-73
2021/11/19 09:48:35;;;;;;;17.80;9.43;;;4.30;99.90;;;;;;2056098;69;21102;-73
2021/11/19 09:51:02;;;;;;;14.50;9.38;;;4.40;99.90;;;;;;2046977;68;21043;-73
2021/11/19 09:53:29;;;;;;;12.33;7.97;;;4.50;99.90;;;;;;2050060;69;21180;-73
2021/11/19 09:55:55;;;;;;;16.23;8.83;;;4.40;99.90;;;;;;2047694;69;21120;-74
2021/11/19 09:58:21;;;;;;;16.45;8.63;;;4.50;99.90;;;;;;2036755;69;21020;-73
2021/11/19 10:00:47;;;;;;;10.75;8.00;;;4.70;99.90;;;;;;2031790;69;21161;-73
2021/11/19 10:03:13;;;;;;;11.90;8.00;;;4.60;99.90;;;;;;2036449;69;21112;-73
2021/11/19 10:05:39;;;;;;;17.00;9.30;;;4.60;99.90;;;;;;2034822;69;21117;-74
2021/11/19 10:08:06;;;;;;;16.90;9.25;;;4.70;99.90;;;;;;2038433;69;21116;-74
2021/11/19 10:10:32;;;;;;;21.42;9.20;;;4.80;99.90;;;;;;2044003;69;21074;-74
2021/11/19 10:12:58;;;;;;;17.60;8.95;;;5.00;99.90;;;;;;2036093;69;21415;-74
2021/11/19 10:15:24;;;;;;;11.90;9.05;;;5.00;99.90;;;;;;2058660;69;21446;-75
2021/11/19 10:17:51;;;;;;;13.32;8.78;;;5.10;99.90;;;;;;2041862;69;21581;-75
2021/11/19 10:20:17;;;;;;;14.50;8.98;;;5.30;99.90;;;;;;2034103;69;21050;-75
2021/11/19 10:22:44;;;;;;;16.32;9.63;;;5.50;99.90;;;;;;2050701;69;21050;-74
2021/11/19 10:25:10;;;;;;;13.58;8.58;;;5.70;99.90;;;;;;2048065;69;21170;-76
2021/11/19 10:27:36;;;;;;;13.38;8.30;;;5.90;99.90;;;;;;2040197;68;21019;-75
2021/11/19 10:30:04;;;;;;;14.23;9.30;;;6.00;99.90;;;;;;2049933;69;21105;-76
2021/11/19 10:32:30;;;;;;;24.05;10.20;;;6.00;99.90;;;;;;2044925;69;21070;-75
2021/11/19 10:34:56;;;;;;;19.95;9.88;;;6.00;99.90;;;;;;2054093;68;21050;-75
2021/11/19 10:37:26;;;;;;;16.30;9.30;;;6.20;99.90;;;;;;2037410;68;21055;-76
2021/11/19 10:39:50;;;;;;;21.02;10.28;;;6.60;99.90;;;;;;2042209;68;21078;-76
2021/11/19 10:42:16;;;;;;;17.85;9.85;;;6.80;99.90;;;;;;2046920;69;21312;-76
2021/11/19 10:44:42;;;;;;;24.80;11.85;;;6.80;99.90;;;;;;2033312;69;21173;-76
2021/11/19 10:47:10;;;;;;;23.67;10.55;;;6.90;99.90;;;;;;2040448;69;21128;-77
2021/11/19 10:49:36;;;;;;;18.30;10.75;;;7.80;99.90;;;;;;2035733;69;21110;-76
2021/11/19 10:52:02;;;;;;;18.48;10.43;;;8.20;99.90;;;;;;2047604;69;21050;-77
2021/11/19 10:54:28;;;;;;;15.70;9.75;;;8.20;99.90;;;;;;2045716;68;21180;-77
2021/11/19 10:56:55;;;;;;;14.35;9.23;;;8.40;99.90;;;;;;2036117;69;21152;-76
2021/11/19 10:59:21;;;;;;;21.90;11.53;;;9.00;99.90;;;;;;2039747;69;21503;-77
2021/11/19 11:01:49;;;;;;;20.75;9.83;;;8.90;99.90;;;;;;2032563;69;21044;-75
2021/11/19 11:04:16;;;;;;;21.17;9.80;;;8.50;99.90;;;;;;2038329;69;21047;-76
2021/11/19 11:06:42;;;;;;;15.40;9.63;;;8.90;99.90;;;;;;2038455;69;21051;-74
2021/11/19 11:09:08;;;;;;;14.55;9.65;;;8.80;99.90;;;;;;2046649;68;21046;-75
2021/11/19 11:11:34;;;;;;;17.67;9.50;;;9.20;99.90;;;;;;2047968;69;21119;-73
2021/11/19 11:14:00;;;;;;;20.80;9.30;;;9.80;99.90;;;;;;2042099;68;21049;-77
2021/11/19 11:16:26;;;;;;;14.95;8.95;;;9.90;99.90;;;;;;2045657;69;21047;-73
2021/11/19 11:18:53;;;;;;;15.90;8.78;;;9.60;99.90;;;;;;2051126;69;21129;-78
2021/11/19 11:21:19;;;;;;;13.08;7.78;;;9.60;99.90;;;;;;2047175;70;21119;-77
2021/11/19 11:23:51;;;;;;;13.60;7.85;;;10.40;99.90;;;;;;2055623;69;21048;-78
2021/11/19 11:26:13;;;;;;;14.70;8.98;;;10.80;99.90;;;;;;2047676;69;21460;-73
2021/11/19 11:28:39;;;;;;;15.03;8.98;;;10.40;99.90;;;;;;2031883;69;21046;-74
2021/11/19 11:31:06;;;;;;;13.62;7.90;;;10.80;99.90;;;;;;2037896;69;21089;-74
2021/11/19 11:33:32;;;;;;;12.65;7.08;;;10.90;99.90;;;;;;2043159;70;21050;-75
2021/11/19 11:35:58;;;;;;;13.85;8.25;;;11.40;99.90;;;;;;2044513;69;21042;-74
2021/11/19 11:38:24;;;;;;;17.07;8.03;;;10.30;99.90;;;;;;2036606;69;21039;-75
2021/11/19 11:40:50;;;;;;;13.40;7.70;;;10.20;99.90;;;;;;2025898;69;21046;-75
2021/11/19 11:43:16;;;;;;;12.55;7.42;;;10.00;99.90;;;;;;2041729;69;21184;-75
2021/11/19 11:45:42;;;;;;;15.45;8.33;;;10.00;99.90;;;;;;2040443;69;21043;-73
2021/11/19 11:48:09;;;;;;;10.72;7.75;;;10.30;99.90;;;;;;2043114;69;21045;-74
2021/11/19 11:50:35;;;;;;;12.68;7.05;;;10.30;99.90;;;;;;2035567;70;21494;-74
2021/11/19 11:53:01;;;;;;;14.15;7.37;;;10.40;99.90;;;;;;2043363;69;21565;-75
2021/11/19 11:55:27;;;;;;;10.35;7.65;;;11.20;99.90;;;;;;2033538;69;21451;-74
2021/11/19 11:57:53;;;;;;;10.20;7.37;;;11.40;99.90;;;;;;2038044;69;21640;-75
2021/11/19 12:00:22;;;;;;;18.17;7.20;;;11.00;99.90;;;;;;2051088;69;21172;-87
2021/11/19 12:02:49;;;;;;;12.43;7.42;;;11.10;99.90;;;;;;2044284;68;21084;-75
2021/11/19 12:05:15;;;;;;;17.15;8.63;;;10.20;99.90;;;;;;2017356;69;21025;-75
2021/11/19 12:07:41;;;;;;;15.60;7.92;;;10.00;99.90;;;;;;2035216;69;21124;-75
2021/11/19 12:10:07;;;;;;;10.75;8.08;;;10.00;99.90;;;;;;2045795;68;21477;-75
2021/11/19 12:12:34;;;;;;;17.12;8.10;;;10.30;99.90;;;;;;2050134;69;21468;-77
2021/11/19 12:15:00;;;;;;;18.82;8.58;;;10.80;99.90;;;;;;2038623;69;21522;-75
2021/11/19 12:17:26;;;;;;;17.05;7.92;;;10.80;99.90;;;;;;2040125;69;21578;-76
2021/11/19 12:19:52;;;;;;;14.90;8.00;;;10.40;99.90;;;;;;2034219;69;21396;-75
2021/11/19 12:22:18;;;;;;;19.50;7.92;;;10.60;99.90;;;;;;2039483;69;21463;-75
2021/11/19 12:24:44;;;;;;;21.82;9.80;;;10.90;99.90;;;;;;2028977;69;21479;-76
2021/11/19 12:27:10;;;;;;;16.67;8.78;;;10.90;99.90;;;;;;2042373;68;21054;-76
2021/11/19 12:29:37;;;;;;;16.82;9.20;;;11.00;99.90;;;;;;2038634;69;21023;-75
2021/11/19 12:32:03;;;;;;;14.18;9.18;;;11.90;99.90;;;;;;2028621;69;21086;-77
2021/11/19 12:34:30;;;;;;;14.53;8.73;;;11.50;99.90;;;;;;2002568;69;21067;-77
2021/11/19 12:36:56;;;;;;;16.10;9.30;;;11.90;99.90;;;;;;2005238;70;21169;-75
2021/11/19 12:39:22;;;;;;;20.62;9.70;;;12.10;99.90;;;;;;2013788;70;21124;-75